Aeroporto :
LOGIN :

Iscrizione | Disclaimer

   EN    FR    IT 

 










Sommario :    VFR   VFR Marginale   IFR   IFR Intensivo   IFR Molto Intensivo
Visibilità : 
Base nubi : 
>= 8 km
>= 3000ft
5 / 8 km
1000 / 3000 ft
1500m / 5 km
500 / 1000 ft
800 / 1500m
200 / 500 ft
< 800m
< 200 ft
Simboli :   Temporali  Nebbia  Neve Forte  Precipitazioni Forti  Vento > 20 kt
SIGMETs :   Varie  Temporali  Ghiacco  Turbolenza  Onda orograficha  Ceneri Vulcaniche






- Altitudine del aeroporto : 2936 ft


LECH - Calamocha

ULTIMO METAR :
  • 200530Z AUTO 02021G32KT 340V050 9999 -RA BKN021 03/01 Q1021

METARs OBSOLETI :
  • 200500Z AUTO 02020G33KT 350V050 9999 -RA BKN020 04/01 Q1021
  • 200430Z AUTO 02019G32KT 340V060 9999 -RA VV016 04/01 Q1021
  • 200400Z AUTO 02021G38KT 340V050 9999 -RA VV015 03/01 Q1021
  • 200330Z AUTO 01022G37KT 340V050 9999 -RA SCT017 BKN023 03/01 Q1021
  • 200300Z AUTO 01023G39KT 340V050 9999 -RA VV016 04/01 Q1021 REDZ

Previsioni scadute.



MetMap, La meteo Aeronautica in un colpo d'occhio ! - Copyright ORBIFLY Dicembre 2007 - Disclaimer

ORBIFLY MET'MAP TEAM :

Programmazione e sviluppo : Alexandra Zaïnal
Concezione : Baudouin d'Aumeries
Aiuto per la programmazione : Marc-Olivier Méhu
Supporto tecnico e logistico : Manuel Goepfert
Aiuto per la traduzione : Arnaldo La Scala

Contatto : metmap@orbifly.com




FONTI E CREDITI :

   NOAA